sensor_id;sensor_type;location;lat;lon;timestamp;temperature;humidity
59847;DHT22;45728;48.788;2.302;2022-09-14T00:02:20;22.20;99.90
59847;DHT22;45728;48.788;2.302;2022-09-14T00:04:46;22.20;99.90
59847;DHT22;45728;48.788;2.302;2022-09-14T00:07:12;22.20;99.90
59847;DHT22;45728;48.788;2.302;2022-09-14T00:09:38;22.20;99.90
59847;DHT22;45728;48.788;2.302;2022-09-14T00:12:04;22.20;99.90
59847;DHT22;45728;48.788;2.302;2022-09-14T00:14:30;22.20;99.90
59847;DHT22;45728;48.788;2.302;2022-09-14T00:16:55;22.20;99.90
59847;DHT22;45728;48.788;2.302;2022-09-14T00:19:23;22.20;99.90
59847;DHT22;45728;48.788;2.302;2022-09-14T00:21:50;22.10;99.90
59847;DHT22;45728;48.788;2.302;2022-09-14T00:24:16;22.20;99.90
59847;DHT22;45728;48.788;2.302;2022-09-14T00:26:42;22.20;99.90
59847;DHT22;45728;48.788;2.302;2022-09-14T00:29:08;22.20;99.90
59847;DHT22;45728;48.788;2.302;2022-09-14T00:31:35;22.10;99.90
59847;DHT22;45728;48.788;2.302;2022-09-14T00:34:01;22.10;99.90
59847;DHT22;45728;48.788;2.302;2022-09-14T00:36:28;22.10;99.90
59847;DHT22;45728;48.788;2.302;2022-09-14T00:38:54;22.10;99.90
59847;DHT22;45728;48.788;2.302;2022-09-14T00:41:25;22.10;99.90
59847;DHT22;45728;48.788;2.302;2022-09-14T00:43:56;22.10;99.90
59847;DHT22;45728;48.788;2.302;2022-09-14T00:46:23;22.00;99.90
59847;DHT22;45728;48.788;2.302;2022-09-14T00:48:49;22.00;99.90
59847;DHT22;45728;48.788;2.302;2022-09-14T00:51:16;21.90;99.90
59847;DHT22;45728;48.788;2.302;2022-09-14T00:53:43;22.00;99.90
59847;DHT22;45728;48.788;2.302;2022-09-14T00:56:09;22.00;99.90
59847;DHT22;45728;48.788;2.302;2022-09-14T00:58:35;21.90;99.90
59847;DHT22;45728;48.788;2.302;2022-09-14T01:01:01;22.00;99.90
59847;DHT22;45728;48.788;2.302;2022-09-14T01:03:27;22.00;99.90
59847;DHT22;45728;48.788;2.302;2022-09-14T01:08:44;21.90;99.90
59847;DHT22;45728;48.788;2.302;2022-09-14T01:16:23;21.80;99.90
59847;DHT22;45728;48.788;2.302;2022-09-14T01:19:03;21.70;99.90
59847;DHT22;45728;48.788;2.302;2022-09-14T01:21:30;21.70;99.90
59847;DHT22;45728;48.788;2.302;2022-09-14T01:29:19;21.70;99.90
59847;DHT22;45728;48.788;2.302;2022-09-14T01:34:23;21.70;99.90
59847;DHT22;45728;48.788;2.302;2022-09-14T01:36:52;21.70;99.90
59847;DHT22;45728;48.788;2.302;2022-09-14T01:39:20;21.60;99.90
59847;DHT22;45728;48.788;2.302;2022-09-14T01:41:46;21.60;99.90
59847;DHT22;45728;48.788;2.302;2022-09-14T01:44:35;21.60;99.90
59847;DHT22;45728;48.788;2.302;2022-09-14T01:47:09;21.60;99.90
59847;DHT22;45728;48.788;2.302;2022-09-14T01:49:44;21.60;99.90
59847;DHT22;45728;48.788;2.302;2022-09-14T01:52:15;21.60;99.90
59847;DHT22;45728;48.788;2.302;2022-09-14T01:54:44;21.60;99.90
59847;DHT22;45728;48.788;2.302;2022-09-14T01:57:17;21.60;99.90
59847;DHT22;45728;48.788;2.302;2022-09-14T01:59:44;21.60;99.90
59847;DHT22;45728;48.788;2.302;2022-09-14T02:02:12;21.50;99.90
59847;DHT22;45728;48.788;2.302;2022-09-14T02:04:47;21.50;99.90
59847;DHT22;45728;48.788;2.302;2022-09-14T02:07:14;21.40;99.90
59847;DHT22;45728;48.788;2.302;2022-09-14T02:09:40;21.40;99.90
59847;DHT22;45728;48.788;2.302;2022-09-14T02:12:06;21.50;99.90
59847;DHT22;45728;48.788;2.302;2022-09-14T02:14:32;21.40;99.90
59847;DHT22;45728;48.788;2.302;2022-09-14T02:16:58;21.40;99.90
59847;DHT22;45728;48.788;2.302;2022-09-14T02:19:25;21.40;99.90
59847;DHT22;45728;48.788;2.302;2022-09-14T02:21:51;21.30;99.90
59847;DHT22;45728;48.788;2.302;2022-09-14T02:24:17;21.30;99.90
59847;DHT22;45728;48.788;2.302;2022-09-14T02:26:43;21.20;99.90
59847;DHT22;45728;48.788;2.302;2022-09-14T02:29:10;21.20;99.90
59847;DHT22;45728;48.788;2.302;2022-09-14T02:42:00;21.20;99.90
59847;DHT22;45728;48.788;2.302;2022-09-14T02:44:41;21.20;99.90
59847;DHT22;45728;48.788;2.302;2022-09-14T02:52:24;21.20;99.90
59847;DHT22;45728;48.788;2.302;2022-09-14T02:55:11;21.10;99.90
59847;DHT22;45728;48.788;2.302;2022-09-14T03:00:44;21.10;99.90
59847;DHT22;45728;48.788;2.302;2022-09-14T03:03:11;21.10;99.90
59847;DHT22;45728;48.788;2.302;2022-09-14T03:05:37;21.00;99.90
59847;DHT22;45728;48.788;2.302;2022-09-14T03:08:03;21.10;99.90
59847;DHT22;45728;48.788;2.302;2022-09-14T03:10:30;21.10;99.90
59847;DHT22;45728;48.788;2.302;2022-09-14T03:12:56;21.10;99.90
59847;DHT22;45728;48.788;2.302;2022-09-14T03:15:22;21.00;99.90
59847;DHT22;45728;48.788;2.302;2022-09-14T03:17:48;21.10;99.90
59847;DHT22;45728;48.788;2.302;2022-09-14T03:20:15;21.10;99.90
59847;DHT22;45728;48.788;2.302;2022-09-14T03:22:41;21.00;99.90
59847;DHT22;45728;48.788;2.302;2022-09-14T03:25:07;21.10;99.90
59847;DHT22;45728;48.788;2.302;2022-09-14T03:27:33;21.10;99.90
59847;DHT22;45728;48.788;2.302;2022-09-14T03:29:59;21.10;99.90
59847;DHT22;45728;48.788;2.302;2022-09-14T03:32:25;21.00;99.90
59847;DHT22;45728;48.788;2.302;2022-09-14T03:34:51;21.00;99.90
59847;DHT22;45728;48.788;2.302;2022-09-14T03:37:17;21.00;99.90
59847;DHT22;45728;48.788;2.302;2022-09-14T03:39:42;21.00;99.90
59847;DHT22;45728;48.788;2.302;2022-09-14T03:42:09;21.10;99.90
59847;DHT22;45728;48.788;2.302;2022-09-14T03:44:35;21.10;99.90
59847;DHT22;45728;48.788;2.302;2022-09-14T03:47:01;21.10;99.90
59847;DHT22;45728;48.788;2.302;2022-09-14T03:49:27;21.10;99.90
59847;DHT22;45728;48.788;2.302;2022-09-14T03:51:52;21.10;99.90
59847;DHT22;45728;48.788;2.302;2022-09-14T03:54:18;21.10;99.90
59847;DHT22;45728;48.788;2.302;2022-09-14T03:56:44;21.10;99.90
59847;DHT22;45728;48.788;2.302;2022-09-14T03:59:10;21.00;99.90
59847;DHT22;45728;48.788;2.302;2022-09-14T04:01:36;21.00;99.90
59847;DHT22;45728;48.788;2.302;2022-09-14T04:04:02;21.00;99.90
59847;DHT22;45728;48.788;2.302;2022-09-14T04:06:28;21.00;99.90
59847;DHT22;45728;48.788;2.302;2022-09-14T04:08:54;21.00;99.90
59847;DHT22;45728;48.788;2.302;2022-09-14T04:11:21;21.00;99.90
59847;DHT22;45728;48.788;2.302;2022-09-14T04:13:47;20.90;99.90
59847;DHT22;45728;48.788;2.302;2022-09-14T04:16:14;20.90;99.90
59847;DHT22;45728;48.788;2.302;2022-09-14T04:18:40;20.90;99.90
59847;DHT22;45728;48.788;2.302;2022-09-14T04:21:07;20.90;99.90
59847;DHT22;45728;48.788;2.302;2022-09-14T04:23:34;20.90;99.90
59847;DHT22;45728;48.788;2.302;2022-09-14T04:26:00;20.80;99.90
59847;DHT22;45728;48.788;2.302;2022-09-14T04:28:26;20.80;99.90
59847;DHT22;45728;48.788;2.302;2022-09-14T04:30:58;20.70;99.90
59847;DHT22;45728;48.788;2.302;2022-09-14T04:33:25;20.70;99.90
59847;DHT22;45728;48.788;2.302;2022-09-14T04:35:54;20.60;99.90
59847;DHT22;45728;48.788;2.302;2022-09-14T04:38:20;20.60;99.90
59847;DHT22;45728;48.788;2.302;2022-09-14T04:40:46;20.60;99.90
59847;DHT22;45728;48.788;2.302;2022-09-14T04:43:12;20.50;99.90
59847;DHT22;45728;48.788;2.302;2022-09-14T04:45:38;20.50;99.90
59847;DHT22;45728;48.788;2.302;2022-09-14T04:48:05;20.40;99.90
59847;DHT22;45728;48.788;2.302;2022-09-14T04:50:31;20.40;99.90
59847;DHT22;45728;48.788;2.302;2022-09-14T04:52:57;20.30;99.90
59847;DHT22;45728;48.788;2.302;2022-09-14T04:55:23;20.40;99.90
59847;DHT22;45728;48.788;2.302;2022-09-14T04:57:49;20.30;99.90
59847;DHT22;45728;48.788;2.302;2022-09-14T05:00:15;20.30;99.90
59847;DHT22;45728;48.788;2.302;2022-09-14T05:02:41;20.40;99.90
59847;DHT22;45728;48.788;2.302;2022-09-14T05:05:07;20.40;99.90
59847;DHT22;45728;48.788;2.302;2022-09-14T05:07:33;20.30;99.90
59847;DHT22;45728;48.788;2.302;2022-09-14T05:09:59;20.30;99.90
59847;DHT22;45728;48.788;2.302;2022-09-14T05:12:25;20.30;99.90
59847;DHT22;45728;48.788;2.302;2022-09-14T05:14:50;20.30;99.90
59847;DHT22;45728;48.788;2.302;2022-09-14T05:17:16;20.30;99.90
59847;DHT22;45728;48.788;2.302;2022-09-14T05:19:42;20.30;99.90
59847;DHT22;45728;48.788;2.302;2022-09-14T05:22:08;20.40;99.90
59847;DHT22;45728;48.788;2.302;2022-09-14T05:24:34;20.40;99.90
59847;DHT22;45728;48.788;2.302;2022-09-14T05:27:00;20.40;99.90
59847;DHT22;45728;48.788;2.302;2022-09-14T05:29:26;20.50;99.90
59847;DHT22;45728;48.788;2.302;2022-09-14T05:31:52;20.50;99.90
59847;DHT22;45728;48.788;2.302;2022-09-14T05:34:17;20.50;99.90
59847;DHT22;45728;48.788;2.302;2022-09-14T05:36:43;20.50;99.90
59847;DHT22;45728;48.788;2.302;2022-09-14T05:39:09;20.50;99.90
59847;DHT22;45728;48.788;2.302;2022-09-14T05:41:35;20.60;99.90
59847;DHT22;45728;48.788;2.302;2022-09-14T05:44:02;20.60;99.90
59847;DHT22;45728;48.788;2.302;2022-09-14T05:46:28;20.60;99.90
59847;DHT22;45728;48.788;2.302;2022-09-14T05:48:54;20.60;99.90
59847;DHT22;45728;48.788;2.302;2022-09-14T05:51:20;20.60;99.90
59847;DHT22;45728;48.788;2.302;2022-09-14T05:53:50;20.60;99.90
59847;DHT22;45728;48.788;2.302;2022-09-14T05:56:17;20.60;99.90
59847;DHT22;45728;48.788;2.302;2022-09-14T05:58:43;20.50;99.90
59847;DHT22;45728;48.788;2.302;2022-09-14T06:01:13;20.50;99.90
59847;DHT22;45728;48.788;2.302;2022-09-14T06:03:40;20.50;99.90
59847;DHT22;45728;48.788;2.302;2022-09-14T06:06:06;20.50;99.90
59847;DHT22;45728;48.788;2.302;2022-09-14T06:08:32;20.50;99.90
59847;DHT22;45728;48.788;2.302;2022-09-14T06:11:03;20.50;99.90
59847;DHT22;45728;48.788;2.302;2022-09-14T06:13:29;20.60;99.90
59847;DHT22;45728;48.788;2.302;2022-09-14T06:15:55;20.60;99.90
59847;DHT22;45728;48.788;2.302;2022-09-14T06:18:21;20.60;99.90
59847;DHT22;45728;48.788;2.302;2022-09-14T06:20:50;20.60;99.90
59847;DHT22;45728;48.788;2.302;2022-09-14T06:23:16;20.70;99.90
59847;DHT22;45728;48.788;2.302;2022-09-14T06:25:42;20.70;99.90
59847;DHT22;45728;48.788;2.302;2022-09-14T06:28:09;20.70;99.90
59847;DHT22;45728;48.788;2.302;2022-09-14T06:30:34;20.70;99.90
59847;DHT22;45728;48.788;2.302;2022-09-14T06:33:00;20.60;99.90
59847;DHT22;45728;48.788;2.302;2022-09-14T06:35:29;20.40;99.90
59847;DHT22;45728;48.788;2.302;2022-09-14T06:37:55;20.40;99.90
59847;DHT22;45728;48.788;2.302;2022-09-14T06:40:20;20.50;99.90
59847;DHT22;45728;48.788;2.302;2022-09-14T06:42:46;20.60;99.90
59847;DHT22;45728;48.788;2.302;2022-09-14T06:45:12;20.60;99.90
59847;DHT22;45728;48.788;2.302;2022-09-14T06:47:38;20.60;99.90
59847;DHT22;45728;48.788;2.302;2022-09-14T06:50:04;20.60;99.90
59847;DHT22;45728;48.788;2.302;2022-09-14T06:52:30;20.70;99.90
59847;DHT22;45728;48.788;2.302;2022-09-14T06:54:56;20.80;99.90
59847;DHT22;45728;48.788;2.302;2022-09-14T06:57:22;20.80;99.90
59847;DHT22;45728;48.788;2.302;2022-09-14T06:59:48;20.70;99.90
59847;DHT22;45728;48.788;2.302;2022-09-14T07:02:14;20.80;99.90
59847;DHT22;45728;48.788;2.302;2022-09-14T07:04:40;20.80;99.90
59847;DHT22;45728;48.788;2.302;2022-09-14T07:07:05;20.80;99.90
59847;DHT22;45728;48.788;2.302;2022-09-14T07:09:31;20.80;99.90
59847;DHT22;45728;48.788;2.302;2022-09-14T07:11:57;20.80;99.90
59847;DHT22;45728;48.788;2.302;2022-09-14T07:14:23;20.80;99.90
59847;DHT22;45728;48.788;2.302;2022-09-14T07:16:49;20.80;99.90
59847;DHT22;45728;48.788;2.302;2022-09-14T07:19:15;20.80;99.90
59847;DHT22;45728;48.788;2.302;2022-09-14T07:21:41;20.90;99.90
59847;DHT22;45728;48.788;2.302;2022-09-14T07:24:07;20.80;99.90
59847;DHT22;45728;48.788;2.302;2022-09-14T07:26:34;20.80;99.90
59847;DHT22;45728;48.788;2.302;2022-09-14T07:29:05;20.90;99.90
59847;DHT22;45728;48.788;2.302;2022-09-14T07:31:32;20.90;99.90
59847;DHT22;45728;48.788;2.302;2022-09-14T07:33:59;20.90;99.90
59847;DHT22;45728;48.788;2.302;2022-09-14T07:36:26;21.00;99.90
59847;DHT22;45728;48.788;2.302;2022-09-14T07:38:52;21.10;99.90
59847;DHT22;45728;48.788;2.302;2022-09-14T07:41:19;21.10;99.90
59847;DHT22;45728;48.788;2.302;2022-09-14T07:43:48;21.10;99.90
59847;DHT22;45728;48.788;2.302;2022-09-14T07:46:14;21.20;99.90
59847;DHT22;45728;48.788;2.302;2022-09-14T07:48:40;21.20;99.90
59847;DHT22;45728;48.788;2.302;2022-09-14T07:51:07;21.20;99.90
59847;DHT22;45728;48.788;2.302;2022-09-14T07:53:38;21.20;99.90
59847;DHT22;45728;48.788;2.302;2022-09-14T07:56:05;21.30;99.90
59847;DHT22;45728;48.788;2.302;2022-09-14T07:58:32;21.40;99.90
59847;DHT22;45728;48.788;2.302;2022-09-14T08:00:58;21.40;99.90
59847;DHT22;45728;48.788;2.302;2022-09-14T08:03:25;21.50;99.90
59847;DHT22;45728;48.788;2.302;2022-09-14T08:06:04;21.60;99.90
59847;DHT22;45728;48.788;2.302;2022-09-14T08:08:31;21.40;99.90
59847;DHT22;45728;48.788;2.302;2022-09-14T08:11:04;21.40;99.90
59847;DHT22;45728;48.788;2.302;2022-09-14T08:13:31;21.40;99.90
59847;DHT22;45728;48.788;2.302;2022-09-14T08:15:57;21.40;99.90
59847;DHT22;45728;48.788;2.302;2022-09-14T08:18:27;21.40;99.90
59847;DHT22;45728;48.788;2.302;2022-09-14T08:20:53;21.50;99.90
59847;DHT22;45728;48.788;2.302;2022-09-14T08:23:19;21.50;99.90
59847;DHT22;45728;48.788;2.302;2022-09-14T08:25:45;21.60;99.90
59847;DHT22;45728;48.788;2.302;2022-09-14T08:28:11;21.70;99.90
59847;DHT22;45728;48.788;2.302;2022-09-14T08:30:36;21.80;99.90
59847;DHT22;45728;48.788;2.302;2022-09-14T08:33:02;21.60;99.90
59847;DHT22;45728;48.788;2.302;2022-09-14T08:35:28;21.70;99.90
59847;DHT22;45728;48.788;2.302;2022-09-14T08:37:54;21.70;99.90
59847;DHT22;45728;48.788;2.302;2022-09-14T08:40:20;21.80;99.90
59847;DHT22;45728;48.788;2.302;2022-09-14T08:42:46;21.80;99.90
59847;DHT22;45728;48.788;2.302;2022-09-14T08:45:14;21.80;99.90
59847;DHT22;45728;48.788;2.302;2022-09-14T08:47:41;21.80;99.90
59847;DHT22;45728;48.788;2.302;2022-09-14T08:52:43;21.80;99.90
59847;DHT22;45728;48.788;2.302;2022-09-14T09:00:21;21.90;99.90
59847;DHT22;45728;48.788;2.302;2022-09-14T09:02:59;22.10;99.90
59847;DHT22;45728;48.788;2.302;2022-09-14T09:10:40;22.20;99.90
59847;DHT22;45728;48.788;2.302;2022-09-14T09:13:08;22.30;99.90
59847;DHT22;45728;48.788;2.302;2022-09-14T09:15:43;22.40;99.90
59847;DHT22;45728;48.788;2.302;2022-09-14T09:18:11;22.70;99.90
59847;DHT22;45728;48.788;2.302;2022-09-14T09:20:42;22.90;99.90
59847;DHT22;45728;48.788;2.302;2022-09-14T09:28:25;23.60;99.90
59847;DHT22;45728;48.788;2.302;2022-09-14T09:30:53;23.60;99.90
59847;DHT22;45728;48.788;2.302;2022-09-14T09:33:20;23.80;99.90
59847;DHT22;45728;48.788;2.302;2022-09-14T09:35:50;24.00;99.90
59847;DHT22;45728;48.788;2.302;2022-09-14T09:38:18;24.00;99.90
59847;DHT22;45728;48.788;2.302;2022-09-14T09:40:48;24.10;99.90
59847;DHT22;45728;48.788;2.302;2022-09-14T09:43:16;24.40;99.90
59847;DHT22;45728;48.788;2.302;2022-09-14T09:46:04;24.30;99.90
59847;DHT22;45728;48.788;2.302;2022-09-14T09:48:32;24.50;99.90
59847;DHT22;45728;48.788;2.302;2022-09-14T09:51:06;24.80;99.90
59847;DHT22;45728;48.788;2.302;2022-09-14T09:53:33;25.00;99.90
59847;DHT22;45728;48.788;2.302;2022-09-14T09:56:01;24.90;99.90
59847;DHT22;45728;48.788;2.302;2022-09-14T09:58:29;24.80;99.90
59847;DHT22;45728;48.788;2.302;2022-09-14T10:00:57;24.60;99.90
59847;DHT22;45728;48.788;2.302;2022-09-14T10:03:28;24.70;99.90
59847;DHT22;45728;48.788;2.302;2022-09-14T10:06:07;24.90;99.90
59847;DHT22;45728;48.788;2.302;2022-09-14T10:08:44;24.80;99.90
59847;DHT22;45728;48.788;2.302;2022-09-14T10:11:27;25.30;99.90
59847;DHT22;45728;48.788;2.302;2022-09-14T10:13:54;25.60;99.90
59847;DHT22;45728;48.788;2.302;2022-09-14T10:16:20;25.20;99.90
59847;DHT22;45728;48.788;2.302;2022-09-14T10:18:47;24.80;99.90
59847;DHT22;45728;48.788;2.302;2022-09-14T10:21:20;24.70;99.90
59847;DHT22;45728;48.788;2.302;2022-09-14T10:23:47;24.80;99.90
59847;DHT22;45728;48.788;2.302;2022-09-14T10:26:26;24.90;99.90
59847;DHT22;45728;48.788;2.302;2022-09-14T10:29:04;25.20;99.90
59847;DHT22;45728;48.788;2.302;2022-09-14T10:31:40;25.60;99.90
59847;DHT22;45728;48.788;2.302;2022-09-14T10:34:08;25.60;99.90
59847;DHT22;45728;48.788;2.302;2022-09-14T10:36:40;25.50;99.90
59847;DHT22;45728;48.788;2.302;2022-09-14T10:39:13;25.70;99.90
59847;DHT22;45728;48.788;2.302;2022-09-14T10:49:42;26.60;99.90
59847;DHT22;45728;48.788;2.302;2022-09-14T10:52:30;26.80;99.90
59847;DHT22;45728;48.788;2.302;2022-09-14T11:00:29;26.50;99.90
59847;DHT22;45728;48.788;2.302;2022-09-14T11:03:12;26.50;99.90
59847;DHT22;45728;48.788;2.302;2022-09-14T11:08:20;26.60;99.90
59847;DHT22;45728;48.788;2.302;2022-09-14T11:11:09;26.90;99.90
59847;DHT22;45728;48.788;2.302;2022-09-14T11:16:16;27.00;99.90
59847;DHT22;45728;48.788;2.302;2022-09-14T11:19:00;26.90;99.90
59847;DHT22;45728;48.788;2.302;2022-09-14T11:21:45;27.20;99.90
59847;DHT22;45728;48.788;2.302;2022-09-14T11:24:17;27.30;99.90
59847;DHT22;45728;48.788;2.302;2022-09-14T11:26:59;27.00;99.90
59847;DHT22;45728;48.788;2.302;2022-09-14T11:29:28;26.80;99.90
59847;DHT22;45728;48.788;2.302;2022-09-14T11:32:04;26.50;99.90
59847;DHT22;45728;48.788;2.302;2022-09-14T11:34:38;26.40;99.90
59847;DHT22;45728;48.788;2.302;2022-09-14T11:37:07;26.30;99.90
59847;DHT22;45728;48.788;2.302;2022-09-14T11:39:35;26.30;99.90
59847;DHT22;45728;48.788;2.302;2022-09-14T11:42:06;26.30;99.90
59847;DHT22;45728;48.788;2.302;2022-09-14T11:44:37;26.30;99.90
59847;DHT22;45728;48.788;2.302;2022-09-14T11:52:17;26.40;99.90
59847;DHT22;45728;48.788;2.302;2022-09-14T11:54:45;26.60;99.90
59847;DHT22;45728;48.788;2.302;2022-09-14T11:57:16;26.40;99.90
59847;DHT22;45728;48.788;2.302;2022-09-14T12:12:41;26.80;99.90
59847;DHT22;45728;48.788;2.302;2022-09-14T12:17:43;26.70;99.90
59847;DHT22;45728;48.788;2.302;2022-09-14T12:23:56;26.40;99.90
59847;DHT22;45728;48.788;2.302;2022-09-14T12:25:59;26.20;99.90
59847;DHT22;45728;48.788;2.302;2022-09-14T12:28:36;26.40;99.90
59847;DHT22;45728;48.788;2.302;2022-09-14T12:40:58;27.00;99.90
59847;DHT22;45728;48.788;2.302;2022-09-14T12:46:03;26.80;99.90
59847;DHT22;45728;48.788;2.302;2022-09-14T12:53:56;26.50;99.90
59847;DHT22;45728;48.788;2.302;2022-09-14T13:04:23;27.00;99.90
59847;DHT22;45728;48.788;2.302;2022-09-14T13:06:50;26.90;99.90
59847;DHT22;45728;48.788;2.302;2022-09-14T13:09:24;27.00;99.90
59847;DHT22;45728;48.788;2.302;2022-09-14T13:11:55;27.00;99.90
59847;DHT22;45728;48.788;2.302;2022-09-14T13:14:22;27.00;99.90
59847;DHT22;45728;48.788;2.302;2022-09-14T13:16:49;26.70;99.90
59847;DHT22;45728;48.788;2.302;2022-09-14T13:19:23;26.50;99.90
59847;DHT22;45728;48.788;2.302;2022-09-14T13:21:51;26.60;99.90
59847;DHT22;45728;48.788;2.302;2022-09-14T13:24:21;26.80;99.90
59847;DHT22;45728;48.788;2.302;2022-09-14T13:26:48;26.90;99.90
59847;DHT22;45728;48.788;2.302;2022-09-14T13:29:14;27.00;99.90
59847;DHT22;45728;48.788;2.302;2022-09-14T13:31:40;26.80;99.90
59847;DHT22;45728;48.788;2.302;2022-09-14T13:34:13;26.50;99.90
59847;DHT22;45728;48.788;2.302;2022-09-14T13:36:42;26.10;99.90
59847;DHT22;45728;48.788;2.302;2022-09-14T13:39:25;26.20;99.90
59847;DHT22;45728;48.788;2.302;2022-09-14T13:41:51;26.60;99.90
59847;DHT22;45728;48.788;2.302;2022-09-14T13:44:18;26.70;99.90
59847;DHT22;45728;48.788;2.302;2022-09-14T13:46:45;26.80;99.90
59847;DHT22;45728;48.788;2.302;2022-09-14T13:49:11;26.50;99.90
59847;DHT22;45728;48.788;2.302;2022-09-14T13:51:37;26.40;99.90
59847;DHT22;45728;48.788;2.302;2022-09-14T13:57:14;26.30;99.90
59847;DHT22;45728;48.788;2.302;2022-09-14T14:02:25;26.30;99.90
59847;DHT22;45728;48.788;2.302;2022-09-14T14:04:52;26.10;99.90
59847;DHT22;45728;48.788;2.302;2022-09-14T14:07:20;26.00;99.90
59847;DHT22;45728;48.788;2.302;2022-09-14T14:09:47;26.10;99.90
59847;DHT22;45728;48.788;2.302;2022-09-14T14:12:22;26.30;99.90
59847;DHT22;45728;48.788;2.302;2022-09-14T14:17:36;26.40;99.90
59847;DHT22;45728;48.788;2.302;2022-09-14T14:25:32;26.30;99.90
59847;DHT22;45728;48.788;2.302;2022-09-14T14:27:59;26.00;99.90
59847;DHT22;45728;48.788;2.302;2022-09-14T14:30:26;26.00;99.90
59847;DHT22;45728;48.788;2.302;2022-09-14T14:32:53;26.10;99.90
59847;DHT22;45728;48.788;2.302;2022-09-14T14:35:21;26.30;99.90
59847;DHT22;45728;48.788;2.302;2022-09-14T14:37:47;26.40;99.90
59847;DHT22;45728;48.788;2.302;2022-09-14T14:40:14;26.30;99.90
59847;DHT22;45728;48.788;2.302;2022-09-14T14:42:40;26.40;99.90
59847;DHT22;45728;48.788;2.302;2022-09-14T14:45:11;26.30;99.90
59847;DHT22;45728;48.788;2.302;2022-09-14T14:47:37;26.50;99.90
59847;DHT22;45728;48.788;2.302;2022-09-14T14:50:04;26.70;99.90
59847;DHT22;45728;48.788;2.302;2022-09-14T14:52:30;26.60;99.90
59847;DHT22;45728;48.788;2.302;2022-09-14T14:54:57;26.70;99.90
59847;DHT22;45728;48.788;2.302;2022-09-14T14:57:23;26.80;99.90
59847;DHT22;45728;48.788;2.302;2022-09-14T14:59:48;26.80;99.90
59847;DHT22;45728;48.788;2.302;2022-09-14T15:02:17;26.80;99.90
59847;DHT22;45728;48.788;2.302;2022-09-14T15:04:43;26.50;99.90
59847;DHT22;45728;48.788;2.302;2022-09-14T15:07:09;26.30;99.90
59847;DHT22;45728;48.788;2.302;2022-09-14T15:09:35;26.20;99.90
59847;DHT22;45728;48.788;2.302;2022-09-14T15:12:00;26.20;99.90
59847;DHT22;45728;48.788;2.302;2022-09-14T15:14:26;26.20;99.90
59847;DHT22;45728;48.788;2.302;2022-09-14T15:16:52;26.10;99.90
59847;DHT22;45728;48.788;2.302;2022-09-14T15:19:22;25.90;99.90
59847;DHT22;45728;48.788;2.302;2022-09-14T15:21:48;26.00;99.90
59847;DHT22;45728;48.788;2.302;2022-09-14T15:24:14;25.80;99.90
59847;DHT22;45728;48.788;2.302;2022-09-14T15:26:39;25.80;99.90
59847;DHT22;45728;48.788;2.302;2022-09-14T15:29:05;26.00;99.90
59847;DHT22;45728;48.788;2.302;2022-09-14T15:31:31;26.00;99.90
59847;DHT22;45728;48.788;2.302;2022-09-14T15:33:57;25.90;99.90
59847;DHT22;45728;48.788;2.302;2022-09-14T15:36:37;26.00;99.90
59847;DHT22;45728;48.788;2.302;2022-09-14T15:39:03;26.00;99.90
59847;DHT22;45728;48.788;2.302;2022-09-14T15:41:30;26.20;99.90
59847;DHT22;45728;48.788;2.302;2022-09-14T15:43:55;26.20;99.90
59847;DHT22;45728;48.788;2.302;2022-09-14T15:46:21;26.20;99.90
59847;DHT22;45728;48.788;2.302;2022-09-14T15:48:47;26.10;99.90
59847;DHT22;45728;48.788;2.302;2022-09-14T15:51:13;26.10;99.90
59847;DHT22;45728;48.788;2.302;2022-09-14T15:53:39;26.20;99.90
59847;DHT22;45728;48.788;2.302;2022-09-14T15:56:08;26.00;99.90
59847;DHT22;45728;48.788;2.302;2022-09-14T15:58:34;25.90;99.90
59847;DHT22;45728;48.788;2.302;2022-09-14T16:01:05;25.80;99.90
59847;DHT22;45728;48.788;2.302;2022-09-14T16:03:31;25.50;99.90
59847;DHT22;45728;48.788;2.302;2022-09-14T16:05:58;25.30;99.90
59847;DHT22;45728;48.788;2.302;2022-09-14T16:08:24;25.40;99.90
59847;DHT22;45728;48.788;2.302;2022-09-14T16:10:57;25.60;99.90
59847;DHT22;45728;48.788;2.302;2022-09-14T16:13:23;25.80;99.90
59847;DHT22;45728;48.788;2.302;2022-09-14T16:15:49;25.80;99.90
59847;DHT22;45728;48.788;2.302;2022-09-14T16:18:15;25.80;99.90
59847;DHT22;45728;48.788;2.302;2022-09-14T16:20:41;25.80;99.90
59847;DHT22;45728;48.788;2.302;2022-09-14T16:23:07;25.70;99.90
59847;DHT22;45728;48.788;2.302;2022-09-14T16:25:36;25.80;99.90
59847;DHT22;45728;48.788;2.302;2022-09-14T16:28:06;25.70;99.90
59847;DHT22;45728;48.788;2.302;2022-09-14T16:30:32;25.60;99.90
59847;DHT22;45728;48.788;2.302;2022-09-14T16:32:58;25.50;99.90
59847;DHT22;45728;48.788;2.302;2022-09-14T16:35:24;25.30;99.90
59847;DHT22;45728;48.788;2.302;2022-09-14T16:37:50;25.10;99.90
59847;DHT22;45728;48.788;2.302;2022-09-14T16:40:16;25.10;99.90
59847;DHT22;45728;48.788;2.302;2022-09-14T16:42:42;25.10;99.90
59847;DHT22;45728;48.788;2.302;2022-09-14T16:45:08;25.20;99.90
59847;DHT22;45728;48.788;2.302;2022-09-14T16:47:35;25.40;99.90
59847;DHT22;45728;48.788;2.302;2022-09-14T16:50:00;25.10;99.90
59847;DHT22;45728;48.788;2.302;2022-09-14T16:52:26;25.20;99.90
59847;DHT22;45728;48.788;2.302;2022-09-14T16:54:54;25.30;99.90
59847;DHT22;45728;48.788;2.302;2022-09-14T16:57:20;25.30;99.90
59847;DHT22;45728;48.788;2.302;2022-09-14T16:59:46;25.50;99.90
59847;DHT22;45728;48.788;2.302;2022-09-14T17:02:12;25.50;99.90
59847;DHT22;45728;48.788;2.302;2022-09-14T17:04:38;25.40;99.90
59847;DHT22;45728;48.788;2.302;2022-09-14T17:07:04;25.30;99.90
59847;DHT22;45728;48.788;2.302;2022-09-14T17:09:29;25.10;99.90
59847;DHT22;45728;48.788;2.302;2022-09-14T17:11:57;25.00;99.90
59847;DHT22;45728;48.788;2.302;2022-09-14T17:14:24;25.00;99.90
59847;DHT22;45728;48.788;2.302;2022-09-14T17:16:50;24.90;99.90
59847;DHT22;45728;48.788;2.302;2022-09-14T17:19:16;24.80;99.90
59847;DHT22;45728;48.788;2.302;2022-09-14T17:21:42;24.60;99.90
59847;DHT22;45728;48.788;2.302;2022-09-14T17:24:09;24.70;99.90
59847;DHT22;45728;48.788;2.302;2022-09-14T17:26:35;24.70;99.90
59847;DHT22;45728;48.788;2.302;2022-09-14T17:29:02;24.50;99.90
59847;DHT22;45728;48.788;2.302;2022-09-14T17:31:32;24.50;99.90
59847;DHT22;45728;48.788;2.302;2022-09-14T17:33:59;24.50;99.90
59847;DHT22;45728;48.788;2.302;2022-09-14T17:36:25;24.50;99.90
59847;DHT22;45728;48.788;2.302;2022-09-14T17:38:53;24.60;99.90
59847;DHT22;45728;48.788;2.302;2022-09-14T17:41:20;24.60;99.90
59847;DHT22;45728;48.788;2.302;2022-09-14T17:43:53;24.50;99.90
59847;DHT22;45728;48.788;2.302;2022-09-14T17:46:20;24.40;99.90
59847;DHT22;45728;48.788;2.302;2022-09-14T17:48:46;24.40;99.90
59847;DHT22;45728;48.788;2.302;2022-09-14T17:51:16;24.40;99.90